createdAt,value
2022-08-31T00:00:09.747Z,18.61
2022-08-31T00:02:57.628Z,18.65
2022-08-31T00:05:25.620Z,18.75
2022-08-31T00:07:55.601Z,18.79
2022-08-31T00:10:32.233Z,18.87
2022-08-31T00:13:01.487Z,18.84
2022-08-31T00:15:31.155Z,18.75
2022-08-31T00:18:00.400Z,18.60
2022-08-31T00:20:33.266Z,18.53
2022-08-31T00:23:02.729Z,18.67
2022-08-31T00:25:30.772Z,18.42
2022-08-31T00:27:58.672Z,18.48
2022-08-31T00:30:27.420Z,18.69
2022-08-31T00:32:57.067Z,18.81
2022-08-31T00:35:28.798Z,18.88
2022-08-31T00:37:57.514Z,18.71
2022-08-31T00:40:26.248Z,18.70
2022-08-31T00:42:55.326Z,18.75
2022-08-31T00:45:24.583Z,18.85
2022-08-31T00:47:53.401Z,18.75
2022-08-31T00:50:24.694Z,18.89
2022-08-31T00:52:56.474Z,18.74
2022-08-31T00:55:29.737Z,18.78
2022-08-31T00:58:01.148Z,18.96
2022-08-31T01:00:30.977Z,18.83
2022-08-31T01:03:01.901Z,18.92
2022-08-31T01:05:30.841Z,18.76
2022-08-31T01:08:01.665Z,18.66
2022-08-31T01:10:33.556Z,18.71
2022-08-31T01:13:02.787Z,18.68
2022-08-31T01:15:32.151Z,18.60
2022-08-31T01:18:02.886Z,18.74
2022-08-31T01:20:38.260Z,18.55
2022-08-31T01:23:19.116Z,18.61
2022-08-31T01:25:49.724Z,18.56
2022-08-31T01:28:17.357Z,18.75
2022-08-31T01:30:57.860Z,18.57
2022-08-31T01:33:25.676Z,18.56
2022-08-31T01:35:54.112Z,18.58
2022-08-31T01:38:24.524Z,18.62
2022-08-31T01:40:55.759Z,18.43
2022-08-31T01:43:24.884Z,18.51
2022-08-31T01:45:53.325Z,18.63
2022-08-31T01:48:22.747Z,18.46
2022-08-31T01:50:50.826Z,18.51
2022-08-31T01:53:18.985Z,18.45
2022-08-31T01:55:48.492Z,18.36
2022-08-31T01:58:16.815Z,18.54
2022-08-31T02:01:33.735Z,18.51
2022-08-31T02:04:04.119Z,18.41
2022-08-31T02:06:32.893Z,18.27
2022-08-31T02:09:00.814Z,18.30
2022-08-31T02:11:30.229Z,18.34
2022-08-31T02:13:58.438Z,18.26
2022-08-31T02:16:26.475Z,18.20
2022-08-31T02:18:55.204Z,18.27
2022-08-31T02:21:23.429Z,18.23
2022-08-31T02:23:51.528Z,18.16
2022-08-31T02:26:19.976Z,18.26
2022-08-31T02:28:49.290Z,18.10
2022-08-31T02:31:17.778Z,17.92
2022-08-31T02:33:53.488Z,17.91
2022-08-31T02:36:23.537Z,18.00
2022-08-31T02:38:52.568Z,18.05
2022-08-31T02:41:21.658Z,18.02
2022-08-31T02:43:51.244Z,17.87
2022-08-31T02:46:19.456Z,17.87
2022-08-31T02:48:57.130Z,17.87
2022-08-31T02:51:25.409Z,17.73
2022-08-31T02:53:53.845Z,17.79
2022-08-31T02:56:23.999Z,17.82
2022-08-31T02:58:55.111Z,17.84
2022-08-31T03:01:26.427Z,17.74
2022-08-31T03:03:54.653Z,17.75
2022-08-31T03:06:23.679Z,17.76
2022-08-31T03:08:51.694Z,17.91
2022-08-31T03:11:20.499Z,17.95
2022-08-31T03:13:48.527Z,17.87
2022-08-31T03:16:17.835Z,17.82
2022-08-31T03:18:48.631Z,17.72
2022-08-31T03:21:17.375Z,17.85
2022-08-31T03:23:45.183Z,17.85
2022-08-31T03:26:13.393Z,17.75
2022-08-31T03:28:42.144Z,17.84
2022-08-31T03:31:40.381Z,17.85
2022-08-31T03:34:08.538Z,17.56
2022-08-31T03:36:37.004Z,17.86
2022-08-31T03:39:05.520Z,17.73
2022-08-31T03:41:33.325Z,17.87
2022-08-31T03:44:02.780Z,17.99
2022-08-31T03:46:33.118Z,17.95
2022-08-31T03:49:04.360Z,17.86
2022-08-31T03:51:34.585Z,17.83
2022-08-31T03:54:03.331Z,17.58
2022-08-31T03:56:33.476Z,17.65
2022-08-31T03:59:01.347Z,17.56
2022-08-31T04:01:49.163Z,17.42
2022-08-31T04:04:41.658Z,17.63
2022-08-31T04:07:27.802Z,17.59
2022-08-31T04:10:15.999Z,17.52
2022-08-31T04:13:19.762Z,17.62
2022-08-31T04:16:20.741Z,17.48
2022-08-31T04:19:24.411Z,17.65
2022-08-31T04:22:15.768Z,17.84
2022-08-31T04:25:00.344Z,17.91
2022-08-31T04:27:28.371Z,17.97
2022-08-31T04:29:56.420Z,17.97
2022-08-31T04:32:24.402Z,17.86
2022-08-31T04:34:56.130Z,17.92
2022-08-31T04:37:26.021Z,17.92
2022-08-31T04:39:59.305Z,17.76
2022-08-31T04:42:27.391Z,17.88
2022-08-31T04:44:55.271Z,18.00
2022-08-31T04:47:24.314Z,17.94
2022-08-31T04:49:52.115Z,17.74
2022-08-31T04:52:20.022Z,17.79
2022-08-31T04:54:57.328Z,17.79
2022-08-31T04:57:25.274Z,17.77
2022-08-31T04:59:53.324Z,17.80
2022-08-31T05:02:54.597Z,17.84
2022-08-31T05:05:22.872Z,17.80
2022-08-31T05:07:51.135Z,17.73
2022-08-31T05:10:21.667Z,17.78
2022-08-31T05:12:51.743Z,17.75
2022-08-31T05:15:21.368Z,17.90
2022-08-31T05:17:49.242Z,18.02
2022-08-31T05:20:17.765Z,17.64
2022-08-31T05:22:45.570Z,17.80
2022-08-31T05:25:14.039Z,17.80
2022-08-31T05:27:43.672Z,17.92
2022-08-31T05:30:13.761Z,18.09
2022-08-31T05:32:45.713Z,17.79
2022-08-31T05:35:14.092Z,18.02
2022-08-31T05:37:44.669Z,18.19
2022-08-31T05:40:13.562Z,17.96
2022-08-31T05:42:42.914Z,18.14
2022-08-31T05:45:11.447Z,17.98
2022-08-31T05:47:40.947Z,17.90
2022-08-31T05:50:10.365Z,17.97
2022-08-31T05:52:41.199Z,18.21
2022-08-31T05:55:09.793Z,18.16
2022-08-31T05:57:38.220Z,18.15
2022-08-31T06:00:09.773Z,18.14
2022-08-31T06:02:42.421Z,18.27
2022-08-31T06:05:13.100Z,18.16
2022-08-31T06:07:41.843Z,18.23
2022-08-31T06:10:12.638Z,18.19
2022-08-31T06:12:42.393Z,18.24
2022-08-31T06:15:13.204Z,18.27
2022-08-31T06:17:41.043Z,18.55
2022-08-31T06:20:14.224Z,18.39
2022-08-31T06:22:46.774Z,18.51
2022-08-31T06:25:23.569Z,18.48
2022-08-31T06:27:52.976Z,18.71
2022-08-31T06:30:27.251Z,18.56
2022-08-31T06:32:58.653Z,18.81
2022-08-31T06:35:31.890Z,18.85
2022-08-31T06:38:22.783Z,18.92
2022-08-31T06:41:16.484Z,18.97
2022-08-31T06:44:07.886Z,19.17
2022-08-31T06:46:53.943Z,18.85
2022-08-31T06:49:27.318Z,19.03
2022-08-31T06:51:55.426Z,18.96
2022-08-31T06:54:30.977Z,19.08
2022-08-31T06:57:25.147Z,18.95
2022-08-31T07:00:12.142Z,19.12
2022-08-31T07:02:57.307Z,19.18
2022-08-31T07:05:26.360Z,19.45
2022-08-31T07:07:55.128Z,19.43
2022-08-31T07:10:23.091Z,19.50
2022-08-31T07:12:51.054Z,19.51
2022-08-31T07:15:18.925Z,19.38
2022-08-31T07:17:47.995Z,19.46
2022-08-31T07:20:17.639Z,19.61
2022-08-31T07:22:45.535Z,19.75
2022-08-31T07:25:34.055Z,19.80
2022-08-31T07:28:02.580Z,19.93
2022-08-31T07:30:34.252Z,19.78
2022-08-31T07:33:06.104Z,19.95
2022-08-31T07:35:37.388Z,20.10
2022-08-31T07:38:38.052Z,20.32
2022-08-31T07:41:27.852Z,20.44
2022-08-31T07:43:57.198Z,20.60
2022-08-31T07:46:30.016Z,20.89
2022-08-31T07:48:58.590Z,20.45
2022-08-31T07:52:06.024Z,20.75
2022-08-31T07:55:07.779Z,21.20
2022-08-31T07:57:53.459Z,21.25
2022-08-31T08:00:24.279Z,21.60
2022-08-31T08:02:53.071Z,21.12
2022-08-31T08:05:27.094Z,21.76
2022-08-31T08:08:16.840Z,21.75
2022-08-31T08:10:56.376Z,21.98
2022-08-31T08:13:54.364Z,21.75
2022-08-31T08:16:30.286Z,21.77
2022-08-31T08:19:08.884Z,22.18
2022-08-31T08:21:37.875Z,21.80
2022-08-31T08:24:08.282Z,21.19
2022-08-31T08:27:08.293Z,21.00
2022-08-31T08:29:53.831Z,21.53
2022-08-31T08:32:31.341Z,21.70
2022-08-31T08:34:59.908Z,21.55
2022-08-31T08:37:54.437Z,21.51
2022-08-31T08:40:28.425Z,22.22
2022-08-31T08:42:58.847Z,22.27
2022-08-31T08:45:27.452Z,22.07
2022-08-31T08:47:57.010Z,22.30
2022-08-31T08:50:28.354Z,23.14
2022-08-31T08:52:59.399Z,22.68
2022-08-31T08:55:36.874Z,22.81
2022-08-31T08:58:08.354Z,22.27
2022-08-31T09:00:42.000Z,22.59
2022-08-31T09:03:21.114Z,22.90
2022-08-31T09:06:13.548Z,22.86
2022-08-31T09:09:24.380Z,23.39
2022-08-31T09:12:14.845Z,23.35
2022-08-31T09:14:53.537Z,22.79
2022-08-31T09:17:40.455Z,23.56
2022-08-31T09:20:09.113Z,24.16
2022-08-31T09:22:47.003Z,24.60
2022-08-31T09:25:19.034Z,24.28
2022-08-31T09:28:07.519Z,24.35
2022-08-31T09:30:52.058Z,24.71
2022-08-31T09:33:23.574Z,24.46
2022-08-31T09:35:55.734Z,23.91
2022-08-31T09:38:31.941Z,24.48
2022-08-31T09:41:02.097Z,24.69
2022-08-31T09:43:38.487Z,25.10
2022-08-31T09:46:09.629Z,25.16
2022-08-31T09:48:51.610Z,25.33
2022-08-31T09:51:25.493Z,24.62
2022-08-31T09:54:11.508Z,24.46
2022-08-31T09:56:55.022Z,24.98
2022-08-31T09:59:38.508Z,25.62
2022-08-31T10:02:11.337Z,24.93
2022-08-31T10:04:51.027Z,25.14
2022-08-31T10:07:37.715Z,24.86
2022-08-31T10:10:28.122Z,24.61
2022-08-31T10:13:03.702Z,24.39
2022-08-31T10:15:43.131Z,25.29
2022-08-31T10:18:16.412Z,24.89
2022-08-31T10:20:50.716Z,25.32
2022-08-31T10:23:27.083Z,25.19
2022-08-31T10:26:02.854Z,24.80
2022-08-31T10:28:35.960Z,24.05
2022-08-31T10:31:12.588Z,23.95
2022-08-31T10:34:02.406Z,23.67
2022-08-31T10:36:36.362Z,23.95
2022-08-31T10:39:05.150Z,24.24
2022-08-31T10:41:41.067Z,24.89
2022-08-31T10:44:17.946Z,25.11
2022-08-31T10:46:47.109Z,25.44
2022-08-31T10:49:15.207Z,25.10
2022-08-31T10:51:52.065Z,25.27
2022-08-31T10:54:32.975Z,25.58
2022-08-31T10:57:09.518Z,25.93
2022-08-31T10:59:57.754Z,25.09
2022-08-31T11:02:40.880Z,25.34
2022-08-31T11:05:26.996Z,25.71
2022-08-31T11:08:02.784Z,26.20
2022-08-31T11:10:44.601Z,26.29
2022-08-31T11:13:38.395Z,26.39
2022-08-31T11:16:36.428Z,26.39
2022-08-31T11:19:33.114Z,26.13
2022-08-31T11:22:37.519Z,25.82
2022-08-31T11:25:24.878Z,26.37
2022-08-31T11:28:00.197Z,25.72
2022-08-31T11:30:32.706Z,25.62
2022-08-31T11:33:07.620Z,26.06
2022-08-31T11:36:05.604Z,25.74
2022-08-31T11:38:52.227Z,26.00
2022-08-31T11:41:46.586Z,25.93
2022-08-31T11:44:53.937Z,25.67
2022-08-31T11:47:35.680Z,26.14
2022-08-31T11:50:10.485Z,26.23
2022-08-31T11:55:29.510Z,26.12
2022-08-31T11:58:20.739Z,26.01
2022-08-31T12:01:03.021Z,26.41
2022-08-31T12:03:43.171Z,26.78
2022-08-31T12:06:12.459Z,26.44
2022-08-31T12:08:52.705Z,27.20
2022-08-31T12:11:29.629Z,27.69
2022-08-31T12:14:05.673Z,27.70
2022-08-31T12:16:53.516Z,26.89
2022-08-31T12:20:01.900Z,27.29
2022-08-31T12:23:30.207Z,27.27
2022-08-31T12:26:44.911Z,27.57
2022-08-31T12:29:26.705Z,27.97
2022-08-31T12:32:11.145Z,28.11
2022-08-31T12:34:45.398Z,27.24
2022-08-31T12:37:35.207Z,27.21
2022-08-31T12:40:12.130Z,27.24
2022-08-31T12:42:48.859Z,27.45
2022-08-31T12:45:18.444Z,27.26
2022-08-31T12:47:58.997Z,26.44
2022-08-31T12:50:34.363Z,27.29
2022-08-31T12:53:41.189Z,26.84
2022-08-31T12:56:15.146Z,26.97
2022-08-31T12:59:04.804Z,26.65
2022-08-31T13:01:33.486Z,26.81
2022-08-31T13:04:04.815Z,27.20
2022-08-31T13:06:36.291Z,27.21
2022-08-31T13:09:06.632Z,27.18
2022-08-31T13:11:40.648Z,26.76
2022-08-31T13:14:15.676Z,27.39
2022-08-31T13:16:46.615Z,27.50
2022-08-31T13:19:25.990Z,27.26
2022-08-31T13:21:58.828Z,27.63
2022-08-31T13:24:30.933Z,27.35
2022-08-31T13:27:09.556Z,27.38
2022-08-31T13:29:45.171Z,27.38
2022-08-31T13:32:32.209Z,27.71
2022-08-31T13:35:03.245Z,27.68
2022-08-31T13:37:35.750Z,27.18
2022-08-31T13:40:11.299Z,27.14
2022-08-31T13:42:42.996Z,27.74
2022-08-31T13:45:26.569Z,27.73
2022-08-31T13:47:58.764Z,27.51
2022-08-31T13:50:34.284Z,27.36
2022-08-31T13:55:54.003Z,26.94
2022-08-31T13:58:29.246Z,27.74
2022-08-31T14:01:25.670Z,27.42
2022-08-31T14:03:58.375Z,27.60
2022-08-31T14:06:30.822Z,26.92
2022-08-31T14:09:05.290Z,26.85
2022-08-31T14:11:35.894Z,27.14
2022-08-31T14:14:08.380Z,27.60
2022-08-31T14:16:43.505Z,27.27
2022-08-31T14:19:14.387Z,27.50
2022-08-31T14:21:43.802Z,28.14
2022-08-31T14:24:13.283Z,28.09
2022-08-31T14:26:43.309Z,27.98
2022-08-31T14:29:13.812Z,27.63
2022-08-31T14:31:52.294Z,27.95
2022-08-31T14:34:24.637Z,28.03
2022-08-31T14:36:56.740Z,28.24
2022-08-31T14:39:29.953Z,27.76
2022-08-31T14:42:00.758Z,28.24
2022-08-31T14:44:32.296Z,28.27
2022-08-31T14:47:02.005Z,28.37
2022-08-31T14:49:41.097Z,28.54
2022-08-31T14:52:09.566Z,29.03
2022-08-31T14:54:38.282Z,28.01
2022-08-31T14:57:11.546Z,28.21
2022-08-31T14:59:43.426Z,27.52
2022-08-31T15:02:16.517Z,27.36
2022-08-31T15:04:45.935Z,27.13
2022-08-31T15:07:14.992Z,26.43
2022-08-31T15:09:44.084Z,26.63
2022-08-31T15:12:14.906Z,26.69
2022-08-31T15:14:45.063Z,26.56
2022-08-31T15:17:19.682Z,26.74
2022-08-31T15:19:53.112Z,26.68
2022-08-31T15:22:21.811Z,26.52
2022-08-31T15:24:50.403Z,26.77
2022-08-31T15:27:18.817Z,25.96
2022-08-31T15:29:51.008Z,26.35
2022-08-31T15:32:22.630Z,26.15
2022-08-31T15:34:58.038Z,26.31
2022-08-31T15:37:32.133Z,26.04
2022-08-31T15:40:03.766Z,25.90
2022-08-31T15:42:36.895Z,26.11
2022-08-31T15:45:06.530Z,25.65
2022-08-31T15:47:56.819Z,25.49
2022-08-31T15:50:31.390Z,25.86
2022-08-31T15:53:08.701Z,25.84
2022-08-31T15:55:41.153Z,26.09
2022-08-31T15:58:13.807Z,25.62
2022-08-31T16:00:42.426Z,25.62
2022-08-31T16:03:12.647Z,25.90
2022-08-31T16:05:43.825Z,25.64
2022-08-31T16:08:13.554Z,26.33
2022-08-31T16:10:46.611Z,25.45
2022-08-31T16:13:16.526Z,26.12
2022-08-31T16:15:51.593Z,26.03
2022-08-31T16:18:23.233Z,26.33
2022-08-31T16:20:52.409Z,26.33
2022-08-31T16:23:21.402Z,26.17
2022-08-31T16:25:49.837Z,26.64
2022-08-31T16:28:21.055Z,26.16
2022-08-31T16:30:51.966Z,26.29
2022-08-31T16:33:22.195Z,26.19
2022-08-31T16:35:52.082Z,26.47
2022-08-31T16:38:27.917Z,26.31
2022-08-31T16:41:03.190Z,25.96
2022-08-31T16:43:31.564Z,25.84
2022-08-31T16:46:00.871Z,25.84
2022-08-31T16:48:51.097Z,25.83
2022-08-31T16:51:26.314Z,26.06
2022-08-31T16:54:01.205Z,25.55
2022-08-31T16:56:42.329Z,25.75
2022-08-31T16:59:19.785Z,25.17
2022-08-31T17:01:47.933Z,25.23
2022-08-31T17:04:41.156Z,24.72
2022-08-31T17:07:13.502Z,25.03
2022-08-31T17:09:47.658Z,25.06
2022-08-31T17:12:27.615Z,24.67
2022-08-31T17:14:59.257Z,24.79
2022-08-31T17:17:32.655Z,24.50
2022-08-31T17:20:07.024Z,24.78
2022-08-31T17:25:52.881Z,24.53
2022-08-31T17:28:39.875Z,23.90
2022-08-31T17:31:16.838Z,23.75
2022-08-31T17:34:00.668Z,23.64
2022-08-31T17:36:44.184Z,23.33
2022-08-31T17:39:28.903Z,23.24
2022-08-31T17:42:02.127Z,23.23
2022-08-31T17:44:31.838Z,23.13
2022-08-31T17:47:06.238Z,22.78
2022-08-31T17:49:42.142Z,22.96
2022-08-31T17:52:23.501Z,22.88
2022-08-31T17:54:52.754Z,23.01
2022-08-31T17:57:25.631Z,22.78
2022-08-31T17:59:56.027Z,22.85
2022-08-31T18:02:27.699Z,22.62
2022-08-31T18:04:57.700Z,22.61
2022-08-31T18:07:29.377Z,22.40
2022-08-31T18:10:00.966Z,22.47
2022-08-31T18:12:29.605Z,22.17
2022-08-31T18:14:59.557Z,22.41
2022-08-31T18:17:27.945Z,22.42
2022-08-31T18:19:56.641Z,22.32
2022-08-31T18:22:25.447Z,22.45
2022-08-31T18:24:55.320Z,22.11
2022-08-31T18:27:23.991Z,22.00
2022-08-31T18:29:52.913Z,22.10
2022-08-31T18:32:21.289Z,21.97
2022-08-31T18:34:52.087Z,21.93
2022-08-31T18:37:26.097Z,21.89
2022-08-31T18:40:13.269Z,21.85
2022-08-31T18:43:07.401Z,21.75
2022-08-31T18:45:39.676Z,21.98
2022-08-31T18:48:24.281Z,21.86
2022-08-31T18:50:54.655Z,21.93
2022-08-31T18:53:29.314Z,21.77
2022-08-31T18:56:09.247Z,21.88
2022-08-31T18:58:38.060Z,21.49
2022-08-31T19:01:10.601Z,21.49
2022-08-31T19:03:39.872Z,21.65
2022-08-31T19:06:09.294Z,21.73
2022-08-31T19:08:37.796Z,21.45
2022-08-31T19:11:09.137Z,21.30
2022-08-31T19:13:38.885Z,21.27
2022-08-31T19:16:15.239Z,21.24
2022-08-31T19:18:47.680Z,21.16
2022-08-31T19:21:19.386Z,21.16
2022-08-31T19:23:49.736Z,21.32
2022-08-31T19:26:23.987Z,21.34
2022-08-31T19:28:52.535Z,21.12
2022-08-31T19:31:22.966Z,20.80
2022-08-31T19:33:56.396Z,21.00
2022-08-31T19:36:27.737Z,20.73
2022-08-31T19:38:57.700Z,20.60
2022-08-31T19:41:29.707Z,20.68
2022-08-31T19:44:09.008Z,20.75
2022-08-31T19:46:39.101Z,20.58
2022-08-31T19:49:09.711Z,20.78
2022-08-31T19:51:38.660Z,20.65
2022-08-31T19:54:09.049Z,20.50
2022-08-31T19:56:40.112Z,20.37
2022-08-31T19:59:09.411Z,20.41
2022-08-31T20:01:40.292Z,20.65
2022-08-31T20:04:15.918Z,20.46
2022-08-31T20:06:45.261Z,20.41
2022-08-31T20:09:14.107Z,20.63
2022-08-31T20:11:47.520Z,20.48
2022-08-31T20:14:16.843Z,20.43
2022-08-31T20:16:46.516Z,20.45
2022-08-31T20:19:21.027Z,20.54
2022-08-31T20:21:54.059Z,20.56
2022-08-31T20:24:25.478Z,20.36
2022-08-31T20:27:01.093Z,20.26
2022-08-31T20:29:30.449Z,20.35
2022-08-31T20:32:01.301Z,20.19
2022-08-31T20:34:29.243Z,20.18
2022-08-31T20:37:01.182Z,20.28
2022-08-31T20:39:32.306Z,20.18
2022-08-31T20:42:03.392Z,20.23
2022-08-31T20:44:33.752Z,19.97
2022-08-31T20:47:21.684Z,19.43
2022-08-31T20:49:54.553Z,20.05
2022-08-31T20:52:24.165Z,20.14
2022-08-31T20:54:54.328Z,20.06
2022-08-31T20:57:33.061Z,20.00
2022-08-31T21:00:05.639Z,19.68
2022-08-31T21:02:34.337Z,19.70
2022-08-31T21:07:52.242Z,19.69
2022-08-31T21:10:37.043Z,19.57
2022-08-31T21:13:09.803Z,19.72
2022-08-31T21:15:42.774Z,19.99
2022-08-31T21:18:10.823Z,19.37
2022-08-31T21:20:39.250Z,19.69
2022-08-31T21:23:09.757Z,19.80
2022-08-31T21:25:44.886Z,19.84
2022-08-31T21:28:17.044Z,19.31
2022-08-31T21:30:47.038Z,19.51
2022-08-31T21:33:14.851Z,19.73
2022-08-31T21:35:42.769Z,19.69
2022-08-31T21:38:13.088Z,19.50
2022-08-31T21:40:48.034Z,19.61
2022-08-31T21:43:17.285Z,19.37
2022-08-31T21:45:45.285Z,19.59
2022-08-31T21:48:13.092Z,19.62
2022-08-31T21:50:40.912Z,19.33
2022-08-31T21:53:08.762Z,19.43
2022-08-31T21:55:38.496Z,19.31
2022-08-31T21:58:06.349Z,19.14
2022-08-31T22:00:35.594Z,18.86
2022-08-31T22:03:03.520Z,19.01
2022-08-31T22:05:31.643Z,18.94
2022-08-31T22:07:59.452Z,18.84
2022-08-31T22:10:30.348Z,18.82
2022-08-31T22:12:58.459Z,18.88
2022-08-31T22:15:28.099Z,18.83
2022-08-31T22:18:31.460Z,18.74
2022-08-31T22:20:46.007Z,18.60
2022-08-31T22:23:14.121Z,18.23
2022-08-31T22:25:41.930Z,18.10
2022-08-31T22:28:10.226Z,18.33
2022-08-31T22:30:38.039Z,18.29
2022-08-31T22:33:07.353Z,18.07
2022-08-31T22:35:39.344Z,18.04
2022-08-31T22:38:09.121Z,17.83
2022-08-31T22:40:39.423Z,17.98
2022-08-31T22:43:07.673Z,17.74
2022-08-31T22:45:35.711Z,17.60
2022-08-31T22:48:03.827Z,17.65
2022-08-31T22:50:32.999Z,17.40
2022-08-31T22:53:00.816Z,17.25
2022-08-31T22:55:28.636Z,17.35
2022-08-31T22:57:56.575Z,17.21
2022-08-31T23:00:24.727Z,16.88
2022-08-31T23:02:52.897Z,16.31
2022-08-31T23:05:21.392Z,16.26
2022-08-31T23:07:50.512Z,16.32
2022-08-31T23:10:20.382Z,16.30
2022-08-31T23:12:51.169Z,16.68
2022-08-31T23:15:21.587Z,16.77
2022-08-31T23:17:51.539Z,16.99
2022-08-31T23:20:24.403Z,17.05
2022-08-31T23:22:55.306Z,16.95
2022-08-31T23:25:25.042Z,16.86
2022-08-31T23:27:53.391Z,16.79
2022-08-31T23:30:24.853Z,16.58
2022-08-31T23:32:53.368Z,16.74
2022-08-31T23:35:22.066Z,16.68
2022-08-31T23:37:49.957Z,16.57
2022-08-31T23:40:19.219Z,16.51
2022-08-31T23:42:47.055Z,16.54
2022-08-31T23:45:16.126Z,16.48
2022-08-31T23:47:43.900Z,16.48
2022-08-31T23:50:13.989Z,15.89
2022-08-31T23:52:43.620Z,16.13
2022-08-31T23:55:12.090Z,16.31
2022-08-31T23:57:41.916Z,16.31
